createdAt,value
2023-07-02T00:02:06.078Z,2.50
2023-07-02T00:04:32.644Z,2.67
2023-07-02T00:06:59.734Z,2.72
2023-07-02T00:09:26.355Z,2.43
2023-07-02T00:11:52.912Z,3.25
2023-07-02T00:14:19.471Z,2.33
2023-07-02T00:16:47.391Z,3.42
2023-07-02T00:19:17.739Z,2.70
2023-07-02T00:21:44.693Z,2.50
2023-07-02T00:24:11.565Z,2.50
2023-07-02T00:26:39.418Z,2.70
2023-07-02T00:29:07.239Z,3.10
2023-07-02T00:31:34.678Z,3.17
2023-07-02T00:34:05.163Z,3.00
2023-07-02T00:36:32.460Z,2.65
2023-07-02T00:38:59.754Z,2.83
2023-07-02T00:41:26.439Z,2.97
2023-07-02T00:43:55.449Z,2.42
2023-07-02T00:46:23.910Z,2.50
2023-07-02T00:48:52.317Z,2.63
2023-07-02T00:51:22.117Z,2.80
2023-07-02T00:53:50.475Z,2.83
2023-07-02T00:56:17.752Z,3.00
2023-07-02T00:58:49.702Z,2.57
2023-07-02T01:01:17.692Z,2.90
2023-07-02T01:03:54.886Z,2.45
2023-07-02T01:06:27.579Z,2.42
2023-07-02T01:09:02.124Z,2.47
2023-07-02T01:11:32.617Z,2.70
2023-07-02T01:14:23.133Z,2.90
2023-07-02T01:16:51.491Z,2.50
2023-07-02T01:19:26.625Z,2.55
2023-07-02T01:21:53.388Z,2.90
2023-07-02T01:24:22.302Z,2.90
2023-07-02T01:26:49.173Z,2.95
2023-07-02T01:29:20.894Z,3.00
2023-07-02T01:31:48.632Z,2.70
2023-07-02T01:34:15.599Z,2.75
2023-07-02T01:36:42.351Z,2.80
2023-07-02T01:39:09.043Z,3.00
2023-07-02T01:41:43.893Z,3.10
2023-07-02T01:44:10.565Z,2.90
2023-07-02T01:46:37.199Z,3.22
2023-07-02T01:49:03.811Z,3.73
2023-07-02T01:51:30.365Z,3.40
2023-07-02T01:53:56.890Z,3.10
2023-07-02T01:56:23.470Z,3.10
2023-07-02T01:58:50.051Z,2.80
2023-07-02T02:01:16.671Z,3.43
2023-07-02T02:03:43.358Z,3.22
2023-07-02T02:06:10.038Z,3.72
2023-07-02T02:08:36.593Z,3.45
2023-07-02T02:11:03.309Z,3.60
2023-07-02T02:13:29.958Z,3.20
2023-07-02T02:15:56.589Z,3.20
2023-07-02T02:18:23.167Z,3.40
2023-07-02T02:20:50.551Z,3.17
2023-07-02T02:23:17.302Z,3.55
2023-07-02T02:25:43.810Z,2.90
2023-07-02T02:28:10.295Z,2.85
2023-07-02T02:30:38.077Z,3.65
2023-07-02T02:33:04.655Z,3.45
2023-07-02T02:35:31.177Z,3.80
2023-07-02T02:37:57.887Z,3.50
2023-07-02T02:40:24.469Z,3.80
2023-07-02T02:42:50.971Z,3.65
2023-07-02T02:45:17.504Z,4.00
2023-07-02T02:47:44.110Z,3.38
2023-07-02T02:50:13.867Z,4.07
2023-07-02T02:52:40.613Z,3.40
2023-07-02T02:55:08.911Z,4.40
2023-07-02T02:57:35.465Z,3.53
2023-07-02T03:00:02.052Z,3.50
2023-07-02T03:02:29.018Z,3.40
2023-07-02T03:04:57.727Z,3.38
2023-07-02T03:07:24.363Z,4.35
2023-07-02T03:09:50.917Z,3.45
2023-07-02T03:12:17.431Z,3.20
2023-07-02T03:14:44.208Z,2.87
2023-07-02T03:17:10.696Z,3.35
2023-07-02T03:19:37.365Z,3.58
2023-07-02T03:22:03.945Z,4.15
2023-07-02T03:24:30.493Z,4.18
2023-07-02T03:26:57.075Z,3.40
2023-07-02T03:29:23.584Z,4.10
2023-07-02T03:31:50.088Z,3.95
2023-07-02T03:34:16.767Z,3.55
2023-07-02T03:36:43.319Z,3.97
2023-07-02T03:39:10.897Z,3.63
2023-07-02T03:41:37.642Z,3.55
2023-07-02T03:44:04.376Z,3.45
2023-07-02T03:46:32.281Z,3.15
2023-07-02T03:48:59.177Z,3.53
2023-07-02T03:51:25.905Z,3.87
2023-07-02T03:53:52.671Z,3.47
2023-07-02T03:56:19.274Z,3.85
2023-07-02T03:58:45.874Z,3.13
2023-07-02T04:01:14.674Z,3.85
2023-07-02T04:03:50.466Z,3.87
2023-07-02T04:06:17.742Z,3.42
2023-07-02T04:08:44.938Z,3.70
2023-07-02T04:11:12.801Z,3.67
2023-07-02T04:13:40.407Z,4.53
2023-07-02T04:16:07.202Z,3.83
2023-07-02T04:18:34.007Z,3.65
2023-07-02T04:21:02.969Z,3.70
2023-07-02T04:23:29.509Z,3.47
2023-07-02T04:26:12.618Z,3.85
2023-07-02T04:28:43.497Z,3.43
2023-07-02T04:31:10.140Z,3.97
2023-07-02T04:33:37.396Z,3.88
2023-07-02T04:36:05.011Z,3.80
2023-07-02T04:38:31.727Z,4.20
2023-07-02T04:41:06.515Z,4.70
2023-07-02T04:43:34.586Z,4.03
2023-07-02T04:46:01.477Z,4.20
2023-07-02T04:48:28.530Z,3.83
2023-07-02T04:50:55.421Z,3.65
2023-07-02T04:53:21.957Z,4.23
2023-07-02T04:55:48.511Z,3.80
2023-07-02T04:58:15.154Z,4.30
2023-07-02T05:00:41.692Z,4.00
2023-07-02T05:03:08.380Z,4.15
2023-07-02T05:05:35.080Z,3.80
2023-07-02T05:08:01.626Z,5.18
2023-07-02T05:10:28.152Z,4.05
2023-07-02T05:12:54.736Z,4.30
2023-07-02T05:15:21.284Z,4.03
2023-07-02T05:17:47.952Z,4.20
2023-07-02T05:20:14.514Z,4.28
2023-07-02T05:22:41.009Z,4.00
2023-07-02T05:25:07.921Z,4.28
2023-07-02T05:27:34.565Z,4.10
2023-07-02T05:30:01.091Z,4.17
2023-07-02T05:32:27.633Z,3.95
2023-07-02T05:34:54.166Z,3.78
2023-07-02T05:37:20.915Z,4.25
2023-07-02T05:39:47.437Z,3.97
2023-07-02T05:42:13.962Z,3.90
2023-07-02T05:44:40.528Z,3.80
2023-07-02T05:47:07.282Z,4.90
2023-07-02T05:49:34.116Z,4.05
2023-07-02T05:52:00.767Z,4.38
2023-07-02T05:54:27.369Z,3.50
2023-07-02T05:56:53.850Z,3.50
2023-07-02T05:59:20.438Z,3.70
2023-07-02T06:01:47.112Z,4.15
2023-07-02T06:04:13.706Z,4.20
2023-07-02T06:06:40.379Z,4.00
2023-07-02T06:09:06.912Z,3.97
2023-07-02T06:11:33.564Z,3.70
2023-07-02T06:14:52.972Z,3.25
2023-07-02T06:17:19.818Z,3.90
2023-07-02T06:19:46.447Z,4.10
2023-07-02T06:22:13.006Z,3.53
2023-07-02T06:24:39.535Z,3.78
2023-07-02T06:27:06.136Z,3.22
2023-07-02T06:29:32.680Z,3.38
2023-07-02T06:32:00.914Z,3.10
2023-07-02T06:34:27.619Z,3.72
2023-07-02T06:36:54.163Z,3.20
2023-07-02T06:39:20.872Z,3.03
2023-07-02T06:41:47.487Z,3.13
2023-07-02T06:44:14.039Z,3.33
2023-07-02T06:46:40.777Z,3.03
2023-07-02T06:49:07.764Z,3.33
2023-07-02T06:51:35.350Z,2.80
2023-07-02T06:54:01.904Z,3.53
2023-07-02T06:56:28.422Z,2.90
2023-07-02T06:58:55.013Z,3.15
2023-07-02T07:01:21.571Z,3.22
2023-07-02T07:03:48.244Z,2.97
2023-07-02T07:06:14.789Z,2.90
2023-07-02T07:08:41.357Z,2.47
2023-07-02T07:11:07.982Z,2.75
2023-07-02T07:13:34.579Z,2.80
2023-07-02T07:16:01.141Z,2.60
2023-07-02T07:18:29.694Z,2.97
2023-07-02T07:20:57.868Z,2.97
2023-07-02T07:23:24.437Z,2.33
2023-07-02T07:25:51.153Z,2.58
2023-07-02T07:28:17.968Z,3.22
2023-07-02T07:30:44.780Z,2.60
2023-07-02T07:33:11.677Z,2.50
2023-07-02T07:35:38.368Z,2.25
2023-07-02T07:38:04.933Z,2.92
2023-07-02T07:40:31.458Z,2.33
2023-07-02T07:42:57.929Z,2.65
2023-07-02T07:45:24.547Z,2.60
2023-07-02T07:47:51.112Z,2.92
2023-07-02T07:50:17.817Z,2.35
2023-07-02T07:52:44.443Z,2.58
2023-07-02T07:55:11.170Z,3.08
2023-07-02T07:57:38.589Z,1.73
2023-07-02T08:00:09.048Z,2.30
2023-07-02T08:02:35.808Z,2.53
2023-07-02T08:05:03.756Z,2.70
2023-07-02T08:07:30.417Z,2.15
2023-07-02T08:09:56.938Z,2.37
2023-07-02T08:12:23.588Z,2.13
2023-07-02T08:14:50.444Z,2.55
2023-07-02T08:17:16.946Z,2.47
2023-07-02T08:19:43.580Z,2.92
2023-07-02T08:22:10.195Z,2.30
2023-07-02T08:24:36.815Z,2.40
2023-07-02T08:27:06.336Z,2.42
2023-07-02T08:29:33.151Z,2.47
2023-07-02T08:31:59.976Z,2.53
2023-07-02T08:34:26.620Z,2.90
2023-07-02T08:36:53.363Z,2.38
2023-07-02T08:39:19.912Z,2.30
2023-07-02T08:41:48.497Z,2.30
2023-07-02T08:44:22.113Z,2.30
2023-07-02T08:46:51.958Z,2.20
2023-07-02T08:49:18.975Z,2.38
2023-07-02T08:51:46.820Z,2.38
2023-07-02T08:54:13.809Z,2.38
2023-07-02T08:56:40.899Z,2.85
2023-07-02T08:59:09.225Z,2.30
2023-07-02T09:01:56.392Z,2.50
2023-07-02T09:04:27.148Z,2.42
2023-07-02T09:07:07.365Z,1.90
2023-07-02T09:09:34.454Z,2.10
2023-07-02T09:12:01.628Z,2.37
2023-07-02T09:14:32.513Z,2.20
2023-07-02T09:17:17.332Z,2.45
2023-07-02T09:19:52.983Z,1.90
2023-07-02T09:22:19.529Z,2.17
2023-07-02T09:24:59.086Z,2.70
2023-07-02T09:27:44.835Z,1.75
2023-07-02T09:30:18.818Z,1.73
2023-07-02T09:32:47.040Z,1.38
2023-07-02T09:35:15.271Z,1.67
2023-07-02T09:37:46.096Z,1.43
2023-07-02T09:40:13.397Z,1.40
2023-07-02T09:42:41.665Z,1.55
2023-07-02T09:45:09.742Z,1.27
2023-07-02T09:47:42.801Z,1.48
2023-07-02T09:50:11.464Z,1.23
2023-07-02T09:52:38.774Z,1.35
2023-07-02T09:55:05.832Z,1.60
2023-07-02T09:57:32.749Z,1.60
2023-07-02T10:00:01.799Z,1.20
2023-07-02T10:02:28.521Z,1.60
2023-07-02T10:04:56.434Z,1.35
2023-07-02T10:07:30.974Z,1.33
2023-07-02T10:09:58.043Z,1.63
2023-07-02T10:12:31.381Z,1.25
2023-07-02T10:14:59.999Z,1.30
2023-07-02T10:17:30.588Z,1.38
2023-07-02T10:20:02.278Z,1.50
2023-07-02T10:22:29.082Z,1.27
2023-07-02T10:25:03.248Z,1.20
2023-07-02T10:27:48.720Z,1.10
2023-07-02T10:30:15.823Z,1.17
2023-07-02T10:32:45.223Z,1.20
2023-07-02T10:35:17.132Z,1.30
2023-07-02T10:37:44.634Z,1.35
2023-07-02T10:40:12.398Z,1.20
2023-07-02T10:42:50.756Z,1.50
2023-07-02T10:45:17.582Z,1.20
2023-07-02T10:47:44.497Z,1.50
2023-07-02T10:50:18.136Z,1.10
2023-07-02T10:52:44.803Z,1.20
2023-07-02T10:55:11.349Z,1.60
2023-07-02T10:57:38.016Z,1.48
2023-07-02T11:00:06.466Z,1.70
2023-07-02T11:02:39.762Z,1.65
2023-07-02T11:05:07.881Z,1.77
2023-07-02T11:07:34.815Z,1.80
2023-07-02T11:10:03.359Z,1.42
2023-07-02T11:12:33.356Z,1.45
2023-07-02T11:15:14.536Z,1.60
2023-07-02T11:17:43.910Z,1.50
2023-07-02T11:20:12.585Z,1.60
2023-07-02T11:22:40.113Z,1.55
2023-07-02T11:25:23.446Z,1.50
2023-07-02T11:27:57.719Z,1.60
2023-07-02T11:30:33.561Z,1.60
2023-07-02T11:33:11.025Z,1.80
2023-07-02T11:35:37.787Z,1.30
2023-07-02T11:38:09.360Z,1.70
2023-07-02T11:40:35.959Z,1.73
2023-07-02T11:43:05.010Z,1.67
2023-07-02T11:45:31.990Z,2.15
2023-07-02T11:48:01.277Z,1.95
2023-07-02T11:50:28.268Z,1.40
2023-07-02T11:52:57.004Z,1.90
2023-07-02T11:55:23.727Z,1.90
2023-07-02T11:58:00.716Z,1.95
2023-07-02T12:00:28.141Z,1.90
2023-07-02T12:02:54.946Z,1.67
2023-07-02T12:05:26.809Z,1.95
2023-07-02T12:07:53.859Z,1.90
2023-07-02T12:10:20.845Z,1.48
2023-07-02T12:12:47.418Z,1.90
2023-07-02T12:15:16.468Z,1.60
2023-07-02T12:17:43.147Z,1.80
2023-07-02T12:20:10.413Z,1.73
2023-07-02T12:22:37.288Z,1.65
2023-07-02T12:25:04.332Z,2.10
2023-07-02T12:27:31.102Z,1.77
2023-07-02T12:29:57.968Z,2.00
2023-07-02T12:32:24.562Z,1.80
2023-07-02T12:34:51.253Z,1.70
2023-07-02T12:37:20.027Z,1.90
2023-07-02T12:39:49.293Z,2.20
2023-07-02T12:42:15.882Z,1.83
2023-07-02T12:44:42.549Z,1.77
2023-07-02T12:47:35.037Z,1.80
2023-07-02T12:50:02.196Z,2.00
2023-07-02T12:52:30.702Z,1.85
2023-07-02T12:54:57.803Z,2.28
2023-07-02T13:00:00.995Z,2.00
2023-07-02T13:02:30.319Z,2.00
2023-07-02T13:04:57.106Z,2.13
2023-07-02T13:07:25.207Z,2.00
2023-07-02T13:09:51.772Z,2.80
2023-07-02T13:12:19.270Z,2.03
2023-07-02T13:14:45.851Z,2.00
2023-07-02T13:17:12.482Z,2.03
2023-07-02T13:19:39.131Z,1.90
2023-07-02T13:22:06.286Z,1.73
2023-07-02T13:24:38.644Z,2.25
2023-07-02T13:27:10.979Z,1.70
2023-07-02T13:29:37.642Z,2.10
2023-07-02T13:32:04.676Z,1.92
2023-07-02T13:34:31.256Z,2.10
2023-07-02T13:36:57.849Z,2.10
2023-07-02T13:39:24.511Z,1.95
2023-07-02T13:41:51.753Z,1.90
2023-07-02T13:44:18.743Z,2.00
2023-07-02T13:46:46.682Z,1.93
2023-07-02T13:49:13.317Z,2.33
2023-07-02T13:51:39.894Z,1.98
2023-07-02T13:54:06.496Z,1.90
2023-07-02T13:56:33.162Z,2.05
2023-07-02T13:59:02.165Z,2.30
2023-07-02T14:01:29.020Z,1.88
2023-07-02T14:03:55.975Z,2.13
2023-07-02T14:06:22.828Z,2.38
2023-07-02T14:08:49.529Z,2.17
2023-07-02T14:11:16.257Z,1.63
2023-07-02T14:13:42.917Z,2.20
2023-07-02T14:16:09.657Z,1.95
2023-07-02T14:18:36.290Z,2.30
2023-07-02T14:21:05.027Z,2.22
2023-07-02T14:23:31.690Z,2.40
2023-07-02T14:25:58.262Z,2.25
2023-07-02T14:28:27.109Z,2.50
2023-07-02T14:30:59.133Z,2.35
2023-07-02T14:33:26.772Z,2.40
2023-07-02T14:35:53.444Z,2.13
2023-07-02T14:38:20.215Z,2.17
2023-07-02T14:40:48.196Z,2.53
2023-07-02T14:43:14.966Z,2.22
2023-07-02T14:45:49.013Z,2.70
2023-07-02T14:48:16.995Z,2.10
2023-07-02T14:50:45.847Z,2.50
2023-07-02T14:53:12.871Z,2.22
2023-07-02T14:55:40.957Z,2.10
2023-07-02T14:58:08.174Z,2.58
2023-07-02T15:00:36.390Z,2.07
2023-07-02T15:03:03.381Z,2.22
2023-07-02T15:05:30.443Z,2.13
2023-07-02T15:07:57.150Z,1.98
2023-07-02T15:10:23.739Z,1.80
2023-07-02T15:12:50.343Z,2.30
2023-07-02T15:15:17.770Z,1.80
2023-07-02T15:17:44.654Z,2.50
2023-07-02T15:20:11.944Z,1.88
2023-07-02T15:22:38.790Z,2.35
2023-07-02T15:25:06.289Z,1.70
2023-07-02T15:27:32.981Z,1.90
2023-07-02T15:29:59.660Z,1.58
2023-07-02T15:32:26.349Z,1.60
2023-07-02T15:34:53.872Z,1.70
2023-07-02T15:37:20.512Z,2.03
2023-07-02T15:39:47.120Z,1.70
2023-07-02T15:42:13.694Z,2.00
2023-07-02T15:44:40.356Z,2.03
2023-07-02T15:47:07.343Z,1.88
2023-07-02T15:49:34.009Z,1.70
2023-07-02T15:52:00.547Z,2.10
2023-07-02T15:54:27.162Z,1.92
2023-07-02T15:56:53.775Z,1.77
2023-07-02T15:59:20.481Z,2.15
2023-07-02T16:01:50.118Z,1.70
2023-07-02T16:04:17.314Z,1.77
2023-07-02T16:06:45.478Z,1.77
2023-07-02T16:09:12.088Z,1.77
2023-07-02T16:11:42.975Z,2.03
2023-07-02T16:14:16.828Z,1.87
2023-07-02T16:16:46.325Z,2.40
2023-07-02T16:19:16.150Z,2.20
2023-07-02T16:21:43.246Z,1.70
2023-07-02T16:24:21.275Z,1.83
2023-07-02T16:26:48.742Z,2.00
2023-07-02T16:29:16.148Z,2.03
2023-07-02T16:31:49.139Z,2.20
2023-07-02T16:34:18.665Z,2.25
2023-07-02T16:36:46.671Z,2.40
2023-07-02T16:39:15.289Z,1.77
2023-07-02T16:41:49.137Z,2.72
2023-07-02T16:44:36.741Z,2.08
2023-07-02T16:47:03.666Z,2.25
2023-07-02T16:49:30.272Z,2.15
2023-07-02T16:51:57.297Z,2.33
2023-07-02T16:54:25.528Z,2.40
2023-07-02T16:56:54.645Z,2.30
2023-07-02T16:59:23.829Z,2.05
2023-07-02T17:01:54.904Z,2.40
2023-07-02T17:04:23.594Z,2.20
2023-07-02T17:06:53.156Z,2.33
2023-07-02T17:09:33.867Z,2.28
2023-07-02T17:12:03.283Z,1.98
2023-07-02T17:14:34.363Z,2.58
2023-07-02T17:17:05.376Z,2.37
2023-07-02T17:19:34.820Z,2.25
2023-07-02T17:22:06.037Z,2.25
2023-07-02T17:24:35.642Z,2.70
2023-07-02T17:27:03.338Z,2.15
2023-07-02T17:29:33.004Z,2.40
2023-07-02T17:32:02.841Z,2.38
2023-07-02T17:34:30.684Z,2.45
2023-07-02T17:36:59.632Z,2.50
2023-07-02T17:39:27.787Z,2.72
2023-07-02T17:41:55.747Z,2.53
2023-07-02T17:44:28.091Z,2.38
2023-07-02T17:46:57.025Z,2.67
2023-07-02T17:49:25.955Z,2.20
2023-07-02T17:51:52.896Z,2.38
2023-07-02T17:54:20.644Z,2.70
2023-07-02T17:56:48.407Z,2.45
2023-07-02T17:59:16.240Z,2.60
2023-07-02T18:01:44.595Z,2.20
2023-07-02T18:04:12.218Z,2.10
2023-07-02T18:06:42.684Z,2.57
2023-07-02T18:09:10.126Z,2.47
2023-07-02T18:11:38.369Z,3.03
2023-07-02T18:14:06.279Z,2.13
2023-07-02T18:16:33.624Z,2.40
2023-07-02T18:19:00.788Z,2.27
2023-07-02T18:21:27.986Z,2.30
2023-07-02T18:23:54.663Z,2.38
2023-07-02T18:26:21.218Z,2.28
2023-07-02T18:28:47.741Z,2.20
2023-07-02T18:31:14.515Z,2.37
2023-07-02T18:33:41.095Z,2.58
2023-07-02T18:36:12.550Z,2.20
2023-07-02T18:38:39.294Z,2.85
2023-07-02T18:41:12.460Z,2.30
2023-07-02T18:43:39.664Z,2.60
2023-07-02T18:46:06.963Z,2.72
2023-07-02T18:48:33.959Z,2.50
2023-07-02T18:51:00.728Z,2.25
2023-07-02T18:53:27.423Z,3.08
2023-07-02T18:56:03.909Z,2.50
2023-07-02T18:58:34.023Z,2.58
2023-07-02T19:01:06.982Z,2.50
2023-07-02T19:03:33.826Z,2.60
2023-07-02T19:06:11.901Z,2.25
2023-07-02T19:08:38.887Z,2.23
2023-07-02T19:11:07.503Z,2.50
2023-07-02T19:13:39.458Z,2.38
2023-07-02T19:16:06.311Z,2.30
2023-07-02T19:18:33.008Z,2.55
2023-07-02T19:21:01.409Z,2.10
2023-07-02T19:23:32.259Z,2.30
2023-07-02T19:25:59.480Z,2.35
2023-07-02T19:28:26.171Z,2.53
2023-07-02T19:30:57.847Z,2.25
2023-07-02T19:33:25.228Z,2.43
2023-07-02T19:35:52.122Z,2.80
2023-07-02T19:38:18.782Z,2.70
2023-07-02T19:40:53.834Z,2.28
2023-07-02T19:43:20.538Z,2.53
2023-07-02T19:45:47.208Z,2.60
2023-07-02T19:48:15.692Z,2.35
2023-07-02T19:50:42.543Z,2.40
2023-07-02T19:53:09.413Z,2.35
2023-07-02T19:56:01.786Z,2.58
2023-07-02T19:58:36.513Z,2.30
2023-07-02T20:01:03.538Z,2.17
2023-07-02T20:03:33.053Z,2.00
2023-07-02T20:06:00.091Z,2.38
2023-07-02T20:08:27.305Z,2.20
2023-07-02T20:10:53.949Z,3.00
2023-07-02T20:13:20.700Z,2.17
2023-07-02T20:15:48.776Z,2.08
2023-07-02T20:18:16.512Z,2.10
2023-07-02T20:20:43.499Z,2.75
2023-07-02T20:23:10.063Z,1.70
2023-07-02T20:28:08.248Z,1.73
2023-07-02T20:30:34.830Z,2.03
2023-07-02T20:33:04.480Z,2.20
2023-07-02T20:35:31.132Z,2.00
2023-07-02T20:37:57.793Z,2.30
2023-07-02T20:40:24.452Z,2.22
2023-07-02T20:42:53.584Z,2.20
2023-07-02T20:45:22.160Z,2.38
2023-07-02T20:47:48.807Z,1.87
2023-07-02T20:50:16.165Z,2.00
2023-07-02T20:52:45.072Z,2.25
2023-07-02T20:55:11.671Z,2.28
2023-07-02T20:57:38.249Z,2.15
2023-07-02T21:00:12.033Z,2.13
2023-07-02T21:02:43.698Z,2.28
2023-07-02T21:05:11.504Z,2.65
2023-07-02T21:07:38.087Z,2.25
2023-07-02T21:10:04.914Z,2.22
2023-07-02T21:12:31.455Z,2.10
2023-07-02T21:14:58.230Z,3.10
2023-07-02T21:17:24.862Z,2.17
2023-07-02T21:19:51.476Z,1.95
2023-07-02T21:22:18.213Z,2.03
2023-07-02T21:24:49.769Z,2.13
2023-07-02T21:27:16.644Z,2.40
2023-07-02T21:29:43.378Z,2.13
2023-07-02T21:32:10.296Z,2.15
2023-07-02T21:34:37.096Z,1.85
2023-07-02T21:37:06.159Z,2.23
2023-07-02T21:39:32.766Z,2.33
2023-07-02T21:41:59.323Z,2.17
2023-07-02T21:44:25.965Z,2.00
2023-07-02T21:46:53.620Z,2.20
2023-07-02T21:49:20.359Z,2.53
2023-07-02T21:51:46.957Z,2.33
2023-07-02T21:54:13.596Z,2.08
2023-07-02T21:56:40.168Z,2.80
2023-07-02T21:59:06.771Z,2.28
2023-07-02T22:01:33.508Z,2.83
2023-07-02T22:04:01.246Z,2.42
2023-07-02T22:06:28.006Z,1.98
2023-07-02T22:08:54.717Z,2.30
2023-07-02T22:11:24.204Z,2.80
2023-07-02T22:13:55.124Z,2.37
2023-07-02T22:16:22.028Z,2.70
2023-07-02T22:18:49.317Z,2.22
2023-07-02T22:21:17.594Z,2.78
2023-07-02T22:23:46.916Z,2.08
2023-07-02T22:26:13.779Z,1.57
2023-07-02T22:28:40.440Z,1.85
2023-07-02T22:31:07.199Z,2.38
2023-07-02T22:33:33.943Z,2.10
2023-07-02T22:36:00.554Z,2.25
2023-07-02T22:38:27.614Z,2.30
2023-07-02T22:40:54.348Z,2.47
2023-07-02T22:43:20.947Z,2.58
2023-07-02T22:45:47.761Z,2.40
2023-07-02T22:48:14.442Z,2.03
2023-07-02T22:50:41.029Z,2.60
2023-07-02T22:53:07.583Z,2.10
2023-07-02T22:55:34.197Z,2.47
2023-07-02T22:58:02.543Z,2.20
2023-07-02T23:00:29.567Z,1.95
2023-07-02T23:02:56.264Z,2.20
2023-07-02T23:05:23.931Z,2.72
2023-07-02T23:07:50.857Z,1.85
2023-07-02T23:10:17.835Z,1.95
2023-07-02T23:12:50.279Z,1.63
2023-07-02T23:15:19.128Z,2.10
2023-07-02T23:17:53.472Z,2.13
2023-07-02T23:20:21.064Z,2.38
2023-07-02T23:22:51.565Z,2.28
2023-07-02T23:25:23.960Z,2.05
2023-07-02T23:27:54.429Z,2.40
2023-07-02T23:30:26.623Z,1.70
2023-07-02T23:32:54.521Z,2.55
2023-07-02T23:35:21.976Z,1.70
2023-07-02T23:37:51.697Z,1.90
2023-07-02T23:40:19.088Z,1.50
2023-07-02T23:42:46.188Z,2.17
2023-07-02T23:45:14.498Z,1.58
2023-07-02T23:47:42.139Z,2.20
2023-07-02T23:50:11.794Z,2.00
2023-07-02T23:52:39.070Z,2.00
2023-07-02T23:55:08.052Z,2.05
2023-07-02T23:57:35.259Z,2.15
